Latest Weather Observations for Avalon

IDV60901

Issued at 12:51 pm EDT Saturday 28 March 2015 (issued every 10 minutes, with the page automatically refreshed every 10 minutes)

About weather observations | Map of Melbourne area stations | Latest observations for Melbourne area | Other Formats
Station Details ID: 087113 Name: AVALON AIRPORT Lat: -38.03 Lon: 144.48 Height: 10.6 m
Data from the previous 72 hours. | See also: Recent months at Avalon
Date/Time
EDT
Tmp

°C
App
Tmp
°C
Dew
Point
°C
Rel
Hum
%
Delta-T

°C
Wind Press
QNH
hPa
Press
MSL
hPa
Rain
since
9 am
mm
Dir
 
Spd
km/h
Gust
km/h
Spd
kts
Gust
kts
28/12:30pm 17.3 14.0 7.9 54 4.8 WNW 15 24 8 13 1025.2 1025.2 0.0
28/11:30am 16.7 13.0 7.9 56 4.4 W 17 22 9 12 1025.7 1025.7 0.0
28/11:00am 16.5 12.9 8.2 58 4.2 WSW 17 22 9 12 1025.7 1025.7 0.0
28/10:30am 15.9 12.2 7.9 59 4.0 WSW 17 24 9 13 1025.8 1025.8 0.0
28/10:00am 15.4 11.4 8.4 63 3.5 W 19 24 10 13 1026.0 1026.0 0.0
28/09:30am 14.7 11.0 9.3 70 2.8 W 19 24 10 13 1025.9 1025.9 0.0
28/09:00am 14.0 10.9 8.8 71 2.6 W 15 20 8 11 1025.7 1025.7 0.0
28/08:30am 13.6 10.9 8.9 73 2.4 W 13 17 7 9 1025.5 1025.5 0.0
28/08:00am 12.9 10.3 9.2 78 1.9 WNW 13 15 7 8 1025.3 1025.3 0.0
28/07:30am 12.7 10.5 9.2 79 1.8 W 11 17 6 9 1025.0 1025.0 0.0
28/07:00am 12.7 10.0 9.0 78 1.8 W 13 17 7 9 1024.9 1024.9 0.0
28/06:30am 12.4 9.6 8.7 78 1.8 WNW 13 15 7 8 1024.7 1024.7 0.0
28/05:30am 12.8 10.0 8.7 76 2.0 W 13 20 7 11 1024.7 1024.7 0.0
28/05:00am 12.9 9.4 8.8 76 2.0 WSW 17 20 9 11 1024.5 1024.5 0.0
28/04:30am 12.9 9.8 9.0 77 2.0 W 15 20 8 11 1024.4 1024.4 0.0
28/04:00am 13.1 9.1 9.0 76 2.1 W 20 28 11 15 1024.4 1024.4 0.0
28/03:30am 13.2 9.7 8.9 75 2.2 W 17 20 9 11 1024.4 1024.4 0.0
28/03:00am 13.3 9.3 9.0 75 2.2 WNW 20 26 11 14 1024.4 1024.4 0.0
28/02:30am 13.3 9.9 9.0 75 2.2 W 17 20 9 11 1024.6 1024.6 0.0
28/02:00am 13.1 9.1 9.2 77 2.0 W 20 24 11 13 1024.7 1024.7 0.0
28/01:30am 13.1 9.8 9.4 78 1.9 W 17 24 9 13 1024.8 1024.8 0.0
28/01:00am 13.0 9.6 9.3 78 1.9 W 17 22 9 12 1025.0 1025.0 0.0
28/12:30am 13.3 10.3 9.4 77 2.0 W 15 20 8 11 1025.1 1025.1 0.0
 
Date/Time
EDT
Tmp

°C
App
Tmp
°C
Dew
Point
°C
Rel
Hum
%
Delta-T

°C
Wind Press
QNH
hPa
Press
MSL
hPa
Rain
since
9 am
mm
Dir
 
Spd
km/h
Gust
km/h
Spd
kts
Gust
kts
27/11:30pm 13.7 10.2 8.7 72 2.5 W 17 22 9 12 1025.3 1025.3 0.0
27/11:00pm 13.8 10.2 8.4 70 2.7 WSW 17 22 9 12 1025.3 1025.3 0.0
27/10:30pm 14.2 11.7 8.2 67 3.0 SW 11 15 6 8 1025.3 1025.3 0.0
27/10:00pm 14.6 11.3 8.1 65 3.2 W 15 22 8 12 1025.1 1025.1 0.0
27/09:30pm 14.8 10.5 7.8 63 3.5 W 20 24 11 13 1025.1 1025.1 0.0
27/09:00pm 15.2 10.8 7.2 59 3.9 WSW 20 28 11 15 1024.9 1024.9 0.0
27/08:30pm 15.5 11.6 7.3 58 4.1 W 17 28 9 15 1024.7 1024.7 0.0
27/08:00pm 15.2 11.6 6.7 57 4.1 WNW 15 20 8 11 1024.2 1024.2 0.0
27/07:30pm 15.5 12.3 7.0 57 4.2 SW 13 17 7 9 1024.0 1024.0 0.0
27/07:00pm 16.6 10.8 6.4 51 5.0 WSW 26 33 14 18 1023.7 1023.7 0.0
27/06:30pm 16.8 11.5 6.6 51 5.0 WSW 24 33 13 18 1023.6 1023.6 0.0
27/05:30pm 16.5 11.4 7.7 56 4.4 SW 24 35 13 19 1023.2 1023.2 0.0
27/05:00pm 17.1 12.2 6.9 51 5.0 W 22 32 12 17 1023.1 1023.1 0.0
27/04:30pm 17.0 11.3 6.8 51 5.0 WSW 26 33 14 18 1023.1 1023.1 0.0
27/04:00pm 17.2 10.9 7.3 52 4.9 W 30 41 16 22 1023.1 1023.1 0.0
27/03:38pm 17.9 11.6 7.6 51 5.2 W 30 48 16 26 1023.1 1023.1 0.0
27/03:30pm 18.2 11.9 7.6 50 5.4 W 30 41 16 22 1023.2 1023.2 0.0
27/03:00pm 17.8 11.0 7.0 49 5.4 W 32 43 17 23 1023.3 1023.3 0.0
27/02:46pm 18.4 12.3 8.1 51 5.3 W 30 48 16 26 1023.4 1023.4 0.0
27/02:30pm 17.1 9.9 7.7 54 4.7 W 35 44 19 24 1023.5 1023.5 0.0
27/02:00pm 16.9 9.6 7.3 53 4.8 WSW 35 48 19 26 1023.8 1023.8 0.0
27/01:30pm 17.1 9.8 7.2 52 4.9 WSW 35 46 19 25 1023.8 1023.8 0.0
27/01:00pm 17.7 10.8 7.4 51 5.2 W 33 48 18 26 1023.7 1023.7 0.0
27/12:43pm 16.3 8.7 7.5 56 4.4 WSW 37 56 20 30 1023.8 1023.8 0.0
27/12:30pm 17.5 10.6 8.9 57 4.5 W 35 50 19 27 1023.9 1023.9 0.0
27/12:00pm 16.4 9.6 7.6 56 4.4 WSW 33 48 18 26 1023.9 1023.9 0.0
27/11:30am 17.2 10.1 8.1 55 4.6 WSW 35 48 19 26 1023.7 1023.7 0.0
27/11:00am 15.3 8.4 8.8 65 3.3 WSW 35 50 19 27 1023.8 1023.8 0.0
27/10:30am 15.9 9.3 10.0 68 3.1 W 35 46 19 25 1023.6 1023.6 0.0
27/10:00am 15.4 9.3 9.7 69 2.9 W 32 46 17 25 1023.2 1023.2 0.0
27/09:49am 14.5 8.3 9.5 72 2.6 W 32 50 17 27 1023.2 1023.2 0.0
27/09:30am 14.4 7.3 9.6 73 2.5 WNW 37 52 20 28 1022.9 1022.9 0.0
27/09:00am 13.6 7.3 9.6 77 2.0 W 33 43 18 23 1022.7 1022.7 0.0
27/08:30am 12.8 6.7 9.6 81 1.6 W 32 39 17 21 1022.4 1022.4 0.0
27/08:00am 12.0 6.6 9.6 85 1.2 W 28 37 15 20 1021.8 1021.8 0.0
27/07:30am 11.9 6.1 9.6 86 1.2 W 30 41 16 22 1021.5 1021.5 0.0
27/07:00am 12.2 6.1 9.9 86 1.2 WNW 32 39 17 21 1020.9 1020.9 0.0
27/06:30am 12.1 6.0 9.8 86 1.2 WNW 32 41 17 22 1020.8 1020.8 0.0
27/06:00am 12.4 6.4 10.0 85 1.2 WNW 32 44 17 24 1020.2 1020.2 0.0
27/05:30am 12.3 5.9 9.5 83 1.4 WNW 33 44 18 24 1019.9 1019.9 0.0
27/05:00am 12.4 6.1 9.8 84 1.3 WNW 33 44 18 24 1019.7 1019.7 0.0
27/04:30am 12.0 6.2 9.6 85 1.2 WNW 30 37 16 20 1019.7 1019.7 0.0
27/04:00am 12.1 5.9 9.5 84 1.3 WNW 32 37 17 20 1019.4 1019.4 0.0
27/03:30am 12.5 6.4 9.7 83 1.4 WNW 32 39 17 21 1019.4 1019.4 0.0
27/03:00am 12.6 6.9 9.8 83 1.4 WNW 30 39 16 21 1019.4 1019.4 0.0
27/02:30am 12.5 7.2 9.7 83 1.4 WNW 28 33 15 18 1019.5 1019.5 0.0
27/02:00am 12.8 6.7 9.6 81 1.6 WNW 32 44 17 24 1019.1 1019.1 0.0
27/01:30am 13.2 7.2 10.0 81 1.6 WNW 32 43 17 23 1018.9 1018.9 0.0
27/01:00am 12.8 6.8 10.0 83 1.4 WNW 32 39 17 21 1018.7 1018.7 0.0
27/12:30am 12.5 7.2 9.9 84 1.3 WNW 28 35 15 19 1018.7 1018.7 0.0
27/12:00am 12.6 6.3 9.8 83 1.4 WNW 33 48 18 26 1018.6 1018.6 0.0
 
Date/Time
EDT
Tmp

°C
App
Tmp
°C
Dew
Point
°C
Rel
Hum
%
Delta-T

°C
Wind Press
QNH
hPa
Press
MSL
hPa
Rain
since
9 am
mm
Dir
 
Spd
km/h
Gust
km/h
Spd
kts
Gust
kts
26/11:30pm 12.8 6.6 10.2 84 1.3 WNW 33 44 18 24 1018.5 1018.5 0.0
26/11:00pm 12.7 6.5 9.9 83 1.4 WNW 33 43 18 23 1018.3 1018.3 0.0
26/10:30pm 12.9 5.8 9.7 81 1.6 WNW 37 46 20 25 1018.2 1018.2 0.0
26/10:00pm 12.8 6.5 9.6 81 1.6 WNW 33 41 18 22 1018.1 1018.1 0.0
26/09:30pm 13.2 5.8 9.8 80 1.7 WNW 39 52 21 28 1017.7 1017.7 0.0
26/09:00pm 13.1 6.0 9.7 80 1.7 WNW 37 44 20 24 1017.4 1017.4 0.0
26/08:30pm 13.3 6.6 9.7 79 1.8 WNW 35 48 19 26 1017.0 1017.0 0.0
26/08:00pm 13.1 4.7 9.7 80 1.7 WNW 44 56 24 30 1016.5 1016.5 0.0
26/07:30pm 13.3 5.0 9.5 78 1.9 NW 43 61 23 33 1016.2 1016.2 0.0
26/07:01pm 13.9 3.8 9.1 73 2.4 WNW 52 70 28 38 1015.9 1015.9 0.0
26/07:00pm 14.0 3.5 9.0 72 2.5 WNW 54 70 29 38 1015.9 1015.9 0.0
26/06:35pm 13.2 5.5 10.2 82 1.6 NW 41 59 22 32 1015.4 1015.4 0.0
26/06:30pm 13.2 5.1 10.0 81 1.6 NW 43 59 23 32 1015.4 1015.4 0.0
26/06:00pm 14.4 5.3 8.4 67 3.0 NW 46 69 25 37 1014.8 1014.8 0.0
26/05:51pm 14.9 6.4 8.6 66 3.2 NW 43 61 23 33 1015.0 1015.0 0.0
26/05:30pm 13.7 4.2 8.5 71 2.6 NW 48 61 26 33 1015.1 1015.1 0.0
26/05:09pm 15.7 6.3 7.2 57 4.2 NW 46 65 25 35 1015.0 1015.0 0.0
26/05:00pm 15.4 6.6 7.2 58 4.0 NW 43 56 23 30 1015.1 1015.1 0.0
26/04:34pm 13.8 6.5 7.1 64 3.3 NW 35 57 19 31 1015.2 1015.2 0.0
26/04:30pm 13.8 6.6 7.6 66 3.0 NW 35 48 19 26 1015.3 1015.3 0.0
26/04:00pm 16.1 6.0 3.5 43 5.8 NW 46 65 25 35 1015.3 1015.3 0.0
26/03:50pm 16.2 6.4 3.3 42 5.9 NW 44 65 24 35 1015.3 1015.3 0.0
26/03:30pm 16.2 4.5 3.3 42 5.9 WNW 54 72 29 39 1015.6 1015.6 0.0
26/03:26pm 16.7 4.9 3.0 40 6.3 WNW 54 72 29 39 1015.6 1015.6 0.0
26/03:21pm 16.5 5.4 2.5 39 6.3 WNW 50 72 27 39 1015.4 1015.4 0.0
26/03:02pm 17.3 7.3 2.1 36 6.8 NW 44 63 24 34 1015.2 1015.2 0.0
26/03:00pm 17.4 7.6 2.2 36 6.9 NW 43 59 23 32 1015.3 1015.3 0.0
26/02:38pm 16.8 8.1 1.7 36 6.7 NW 37 59 20 32 1015.7 1015.7 0.0
26/02:30pm 17.0 7.9 1.8 36 6.8 NW 39 54 21 29 1015.9 1015.9 0.0
26/02:21pm 17.2 8.5 2.0 36 6.8 NW 37 56 20 30 1016.0 1016.0 0.0
26/02:00pm 17.3 8.1 1.3 34 7.1 NW 39 56 21 30 1016.3 1016.3 0.0
26/01:59pm 17.4 8.6 1.4 34 7.1 NW 37 56 20 30 1016.4 1016.4 0.0
26/01:30pm 17.9 8.4 1.8 34 7.2 WNW 41 56 22 30 1016.6 1016.6 0.0
26/01:00pm 16.6 7.9 1.9 37 6.5 WNW 37 46 20 25 1017.0 1017.0 0.0
26/12:30pm 17.8 8.4 2.5 36 7.0 WNW 41 56 22 30 1017.1 1017.1 0.0
26/12:20pm 17.0 8.0 2.2 37 6.7 WNW 39 54 21 29 1017.0 1017.0 0.0
26/12:00pm 16.6 7.4 3.3 41 6.1 WNW 41 54 22 29 1017.3 1017.3 0.0
26/11:30am 16.1 7.6 3.2 42 5.9 WNW 37 46 20 25 1017.6 1017.6 0.0
26/11:00am 14.8 6.1 4.2 49 4.9 WNW 39 50 21 27 1017.5 1017.5 0.0
26/10:30am 14.6 6.8 5.1 53 4.5 WNW 35 50 19 27 1017.4 1017.4 0.0
26/10:00am 13.6 5.4 5.0 56 4.0 NW 37 52 20 28 1017.4 1017.4 0.0
26/09:30am 12.9 4.6 4.3 56 3.9 NW 37 46 20 25 1017.3 1017.3 0.0
26/09:00am 12.1 4.3 5.0 62 3.3 WNW 35 44 19 24 1016.9 1016.9 0.0
26/08:30am 11.1 5.0 5.0 66 2.8 NW 26 37 14 20 1016.8 1016.8 0.0
26/08:00am 10.2 3.7 4.8 69 2.4 NW 28 39 15 21 1016.4 1016.4 0.0
26/07:39am 10.0 3.5 4.8 70 2.3 NW 28 46 15 25 1016.0 1016.0 0.0
26/07:30am 9.9 3.8 4.7 70 2.3 NW 26 33 14 18 1015.9 1015.9 0.0
26/07:00am 10.0 4.4 5.2 72 2.2 NW 24 33 13 18 1015.6 1015.6 0.0
26/06:30am 10.0 4.4 5.2 72 2.2 NW 24 32 13 17 1015.5 1015.5 0.0
26/06:00am 9.4 4.5 5.0 74 2.0 NNW 20 28 11 15 1015.3 1015.3 0.0
26/05:30am 9.7 4.8 5.3 74 2.0 NW 20 28 11 15 1015.2 1015.2 0.0
26/05:00am 9.7 4.9 5.5 75 1.9 NW 20 28 11 15 1015.2 1015.2 0.0
26/04:30am 9.4 5.1 5.4 76 1.8 NW 17 22 9 12 1015.2 1015.2 0.0
26/04:00am 9.8 5.6 5.8 76 1.8 NNW 17 22 9 12 1015.1 1015.1 0.0
26/03:30am 10.3 6.2 6.3 76 1.9 NNW 17 20 9 11 1015.1 1015.1 0.0
26/03:00am 10.7 5.7 6.3 74 2.1 NW 22 28 12 15 1014.8 1014.8 0.0
26/02:30am 10.9 5.9 6.3 73 2.2 NW 22 30 12 16 1015.1 1015.1 0.0
26/02:00am 10.9 4.7 6.3 73 2.1 WNW 28 33 15 18 1015.4 1015.4 0.0
26/01:30am 11.1 3.9 6.0 71 2.4 WNW 33 44 18 24 1015.5 1015.5 0.0
26/01:00am 11.5 4.0 6.2 70 2.5 W 35 46 19 25 1015.3 1015.3 0.0
26/12:30am 11.7 4.7 6.0 68 2.7 WNW 32 48 17 26 1015.4 1015.4 0.0
26/12:04am 12.5 2.9 6.1 65 3.0 W 46 67 25 36 1015.2 1015.2 0.0
26/12:00am 12.9 3.4 6.5 65 3.1 W 46 59 25 32 1015.1 1015.1 0.0
 
Date/Time
EDT
Tmp

°C
App
Tmp
°C
Dew
Point
°C
Rel
Hum
%
Delta-T

°C
Wind Press
QNH
hPa
Press
MSL
hPa
Rain
since
9 am
mm
Dir
 
Spd
km/h
Gust
km/h
Spd
kts
Gust
kts
25/11:49pm 15.2 10.2 3.4 45 5.4 N 19 46 10 25 1014.2 1014.2 0.0
25/11:30pm 14.7 9.5 2.6 44 5.4 N 19 24 10 13 1013.5 1013.5 0.0
25/11:00pm 13.5 8.7 2.4 47 4.9 N 17 20 9 11 1013.6 1013.6 0.0
25/10:30pm 13.3 8.5 2.8 49 4.6 N 17 20 9 11 1013.8 1013.8 0.0
25/10:00pm 13.0 8.6 2.5 49 4.6 N 15 17 8 9 1014.1 1014.1 0.0
25/09:30pm 14.4 10.7 2.6 45 5.2 N 11 15 6 8 1014.1 1014.1 0.0
25/09:00pm 15.0 12.9 6.6 57 4.1 N 7 11 4 6 1014.3 1014.3 0.0
25/08:30pm 14.5 11.7 6.8 60 3.7 NNE 11 15 6 8 1013.9 1013.9 0.0
25/08:00pm 14.9 12.0 6.7 58 4.0 NE 11 11 6 6 1013.5 1013.5 0.0
25/07:30pm 16.9 14.5 7.0 52 4.9 E 9 9 5 5 1013.2 1013.2 0.0
25/07:00pm 17.3 15.0 7.4 52 5.0 E 9 11 5 6 1013.2 1013.2 0.0
25/06:30pm 18.4 15.8 5.9 44 6.1 SSE 9 13 5 7 1012.9 1012.9 0.0
25/06:00pm 19.1 16.2 6.6 44 6.3 SSE 11 17 6 9 1012.7 1012.7 0.0
25/05:30pm 19.0 15.6 6.1 43 6.4 S 13 19 7 10 1012.7 1012.7 0.0
25/05:00pm 18.8 15.8 7.6 48 5.7 ESE 13 17 7 9 1013.1 1013.1 0.0
25/04:30pm 17.8 14.8 7.8 52 5.1 SE 13 20 7 11 1013.4 1013.4 0.0
25/04:00pm 18.2 15.1 7.3 49 5.5 S 13 17 7 9 1013.9 1013.9 0.0
25/03:30pm 17.3 13.6 7.9 54 4.8 SE 17 20 9 11 1014.3 1014.3 0.0
25/03:00pm 16.7 11.9 7.4 54 4.6 SE 22 28 12 15 1014.7 1014.7 0.0
25/02:30pm 18.1 13.7 7.5 50 5.4 ESE 20 30 11 16 1014.6 1014.6 0.0
25/02:00pm 17.7 14.1 6.6 48 5.5 SE 15 20 8 11 1015.5 1015.5 0.0
25/01:30pm 17.0 14.9 6.5 50 5.2 ESE 7 13 4 7 1016.1 1016.1 0.0
25/01:00pm 17.3 14.7 6.2 48 5.4 NNE 9 13 5 7 1016.5 1016.5 0.0

Latest Capital City Observations: Canberra | Sydney | Melbourne | Brisbane | Adelaide | Perth | Hobart | Darwin

Other Formats:

Comma delimited format used in spreadsheet applications
http://www.bom.gov.au/fwo/IDV60901/IDV60901.94854.axf

JavaScript Object Notation format (JSON) in row-major order
http://www.bom.gov.au/fwo/IDV60901/IDV60901.94854.json